createdAt,value
2018-09-15T00:00:55.183Z,18.37
2018-09-15T00:03:24.692Z,18.44
2018-09-15T00:05:53.536Z,18.47
2018-09-15T00:08:22.420Z,18.42
2018-09-15T00:10:51.685Z,18.33
2018-09-15T00:13:21.719Z,18.30
2018-09-15T00:15:50.538Z,18.20
2018-09-15T00:18:20.067Z,18.12
2018-09-15T00:20:48.943Z,18.06
2018-09-15T00:23:17.825Z,18.12
2018-09-15T00:25:46.801Z,18.12
2018-09-15T00:28:15.596Z,18.08
2018-09-15T00:30:44.479Z,18.10
2018-09-15T00:33:13.807Z,18.09
2018-09-15T00:35:42.608Z,18.05
2018-09-15T00:38:11.464Z,18.05
2018-09-15T00:40:40.689Z,18.01
2018-09-15T00:43:09.430Z,17.95
2018-09-15T00:45:38.323Z,17.93
2018-09-15T00:48:07.157Z,17.87
2018-09-15T00:50:36.011Z,17.89
2018-09-15T00:53:04.824Z,17.81
2018-09-15T00:55:33.996Z,17.91
2018-09-15T00:58:02.876Z,17.91
2018-09-15T01:00:31.758Z,17.81
2018-09-15T01:03:00.991Z,17.75
2018-09-15T01:05:29.847Z,17.77
2018-09-15T01:07:58.789Z,17.73
2018-09-15T01:10:28.175Z,17.72
2018-09-15T01:12:56.946Z,17.78
2018-09-15T01:15:25.702Z,17.82
2018-09-15T01:17:55.025Z,17.76
2018-09-15T01:20:23.867Z,17.76
2018-09-15T01:22:52.741Z,17.83
2018-09-15T01:25:21.576Z,17.73
2018-09-15T01:27:50.602Z,17.75
2018-09-15T01:30:19.449Z,17.83
2018-09-15T01:32:48.763Z,17.81
2018-09-15T01:35:17.569Z,17.72
2018-09-15T01:37:46.420Z,17.76
2018-09-15T01:40:15.290Z,17.67
2018-09-15T01:42:44.068Z,17.66
2018-09-15T01:45:12.872Z,17.59
2018-09-15T01:47:42.079Z,17.68
2018-09-15T01:50:11.005Z,17.66
2018-09-15T01:52:39.884Z,17.70
2018-09-15T01:55:08.954Z,17.74
2018-09-15T01:57:37.973Z,17.68
2018-09-15T02:00:06.899Z,17.67
2018-09-15T02:02:36.045Z,17.64
2018-09-15T02:05:04.926Z,17.65
2018-09-15T02:07:33.662Z,17.63
2018-09-15T02:10:02.509Z,17.55
2018-09-15T02:12:31.343Z,17.57
2018-09-15T02:15:00.292Z,17.57
2018-09-15T02:17:29.559Z,17.53
2018-09-15T02:19:58.355Z,17.50
2018-09-15T02:22:27.224Z,17.58
2018-09-15T02:24:56.442Z,17.52
2018-09-15T02:27:25.367Z,17.58
2018-09-15T02:29:54.251Z,17.59
2018-09-15T02:32:23.152Z,17.64
2018-09-15T02:34:51.944Z,17.53
2018-09-15T02:37:20.715Z,17.53
2018-09-15T02:39:49.969Z,17.48
2018-09-15T02:42:18.855Z,17.46
2018-09-15T02:44:47.659Z,17.48
2018-09-15T02:47:16.851Z,17.48
2018-09-15T02:49:45.629Z,17.43
2018-09-15T02:52:14.444Z,17.44
2018-09-15T02:54:43.727Z,17.40
2018-09-15T02:57:12.523Z,17.33
2018-09-15T02:59:41.207Z,17.31
2018-09-15T03:02:10.360Z,17.39
2018-09-15T03:04:39.196Z,17.43
2018-09-15T03:07:08.055Z,17.42
2018-09-15T03:09:37.242Z,17.41
2018-09-15T03:12:06.004Z,17.39
2018-09-15T03:14:34.892Z,17.40
2018-09-15T03:17:04.104Z,17.32
2018-09-15T03:19:32.939Z,17.29
2018-09-15T03:22:01.808Z,17.24
2018-09-15T03:24:31.009Z,17.19
2018-09-15T03:26:59.898Z,17.14
2018-09-15T03:29:28.709Z,17.11
2018-09-15T03:31:57.962Z,17.09
2018-09-15T03:34:26.785Z,17.08
2018-09-15T03:36:55.745Z,17.09
2018-09-15T03:39:24.714Z,17.04
2018-09-15T03:41:53.595Z,17.02
2018-09-15T03:44:22.749Z,16.95
2018-09-15T03:46:51.628Z,16.95
2018-09-15T03:49:20.437Z,16.92
2018-09-15T03:51:49.382Z,16.91
2018-09-15T03:54:20.371Z,16.98
2018-09-15T03:56:49.460Z,17.03
2018-09-15T03:59:18.681Z,17.03
2018-09-15T04:01:48.121Z,16.96
2018-09-15T04:04:17.011Z,16.95
2018-09-15T04:06:45.896Z,16.86
2018-09-15T04:09:15.054Z,16.85
2018-09-15T04:11:43.825Z,16.78
2018-09-15T04:14:12.628Z,16.71
2018-09-15T04:16:41.488Z,16.66
2018-09-15T04:19:10.314Z,16.85
2018-09-15T04:21:39.090Z,16.86
2018-09-15T04:24:08.389Z,16.82
2018-09-15T04:26:37.158Z,16.83
2018-09-15T04:29:05.925Z,16.90
2018-09-15T04:31:34.686Z,16.90
2018-09-15T04:34:03.449Z,17.03
2018-09-15T04:36:32.269Z,17.08
2018-09-15T04:39:01.135Z,17.12
2018-09-15T04:41:30.045Z,17.17
2018-09-15T04:43:58.877Z,17.26
2018-09-15T04:46:27.643Z,17.28
2018-09-15T04:48:56.432Z,17.33
2018-09-15T04:51:25.136Z,17.34
2018-09-15T04:53:54.036Z,17.46
2018-09-15T04:56:22.846Z,17.50
2018-09-15T04:58:51.930Z,17.56
2018-09-15T05:01:20.763Z,17.60
2018-09-15T05:03:49.638Z,17.70
2018-09-15T05:06:18.492Z,17.77
2018-09-15T05:08:47.306Z,17.87
2018-09-15T05:11:16.167Z,17.96
2018-09-15T05:13:44.935Z,18.06
2018-09-15T05:16:14.207Z,18.11
2018-09-15T05:18:43.232Z,18.14
2018-09-15T05:21:11.972Z,18.17
2018-09-15T05:23:40.920Z,18.23
2018-09-15T05:26:09.803Z,18.31
2018-09-15T05:28:38.543Z,18.43
2018-09-15T05:31:07.730Z,18.50
2018-09-15T05:33:36.711Z,18.56
2018-09-15T05:36:05.535Z,18.61
2018-09-15T05:38:34.456Z,18.67
2018-09-15T05:41:03.236Z,18.74
2018-09-15T05:43:32.151Z,18.84
2018-09-15T05:46:01.119Z,18.91
2018-09-15T05:48:29.983Z,18.99
2018-09-15T05:50:58.921Z,19.06
2018-09-15T05:53:28.112Z,19.19
2018-09-15T05:55:57.092Z,19.31
2018-09-15T05:58:25.808Z,19.39
2018-09-15T06:00:55.282Z,19.47
2018-09-15T06:03:24.270Z,19.54
2018-09-15T06:05:53.349Z,19.62
2018-09-15T06:08:22.100Z,19.67
2018-09-15T06:10:50.913Z,19.81
2018-09-15T06:13:19.825Z,19.94
2018-09-15T06:15:49.160Z,20.07
2018-09-15T06:18:18.013Z,20.06
2018-09-15T06:20:46.785Z,20.15
2018-09-15T06:23:16.008Z,20.31
2018-09-15T06:25:44.758Z,20.39
2018-09-15T06:28:13.745Z,20.34
2018-09-15T06:30:42.881Z,20.54
2018-09-15T06:33:11.715Z,20.62
2018-09-15T06:35:40.592Z,20.72
2018-09-15T06:38:10.182Z,20.88
2018-09-15T06:40:39.050Z,20.98
2018-09-15T06:43:08.002Z,21.08
2018-09-15T06:45:36.875Z,21.22
2018-09-15T06:48:05.703Z,21.39
2018-09-15T06:50:34.541Z,21.43
2018-09-15T06:53:03.677Z,21.40
2018-09-15T06:55:32.499Z,21.60
2018-09-15T06:58:01.308Z,21.73
2018-09-15T07:00:30.136Z,21.83
2018-09-15T07:02:58.909Z,21.72
2018-09-15T07:05:27.730Z,21.62
2018-09-15T07:07:56.540Z,21.80
2018-09-15T07:10:25.348Z,22.04
2018-09-15T07:12:54.176Z,22.19
2018-09-15T07:15:22.943Z,22.31
2018-09-15T07:17:51.760Z,22.42
2018-09-15T07:20:20.700Z,22.58
2018-09-15T07:22:50.127Z,22.69
2018-09-15T07:25:18.952Z,22.93
2018-09-15T07:27:47.770Z,23.11
2018-09-15T07:30:16.793Z,23.25
2018-09-15T07:32:45.591Z,23.30
2018-09-15T07:35:14.644Z,23.49
2018-09-15T07:37:43.539Z,23.60
2018-09-15T07:40:12.361Z,23.81
2018-09-15T07:42:41.041Z,23.98
2018-09-15T07:45:10.324Z,24.14
2018-09-15T07:47:39.040Z,24.22
2018-09-15T07:50:07.911Z,24.33
2018-09-15T07:52:37.199Z,24.53
2018-09-15T07:55:05.946Z,24.68
2018-09-15T07:57:34.790Z,24.77
2018-09-15T08:00:04.141Z,24.91
2018-09-15T08:02:32.865Z,25.05
2018-09-15T08:05:01.657Z,25.18
2018-09-15T08:07:30.449Z,25.36
2018-09-15T08:09:59.296Z,25.52
2018-09-15T08:12:28.116Z,25.57
2018-09-15T08:14:56.927Z,25.73
2018-09-15T08:17:25.600Z,25.88
2018-09-15T08:19:54.427Z,26.00
2018-09-15T08:22:23.636Z,26.12
2018-09-15T08:24:52.310Z,26.34
2018-09-15T08:27:21.022Z,26.42
2018-09-15T08:29:50.274Z,26.55
2018-09-15T08:32:19.209Z,26.60
2018-09-15T08:34:48.093Z,26.70
2018-09-15T08:37:17.591Z,26.83
2018-09-15T08:39:46.481Z,26.92
2018-09-15T08:42:15.343Z,27.02
2018-09-15T08:44:44.443Z,27.10
2018-09-15T08:47:13.223Z,27.18
2018-09-15T08:49:42.111Z,27.19
2018-09-15T08:52:11.357Z,27.24
2018-09-15T08:54:40.207Z,27.32
2018-09-15T08:57:09.008Z,27.36
2018-09-15T08:59:38.210Z,27.42
2018-09-15T09:02:11.112Z,27.51
2018-09-15T09:04:39.948Z,27.57
2018-09-15T09:07:08.775Z,27.68
2018-09-15T09:09:37.638Z,27.70
2018-09-15T09:12:06.573Z,27.73
2018-09-15T09:14:35.332Z,27.83
2018-09-15T09:17:04.388Z,27.82
2018-09-15T09:19:33.626Z,27.98
2018-09-15T09:22:02.418Z,28.02
2018-09-15T09:24:31.256Z,28.06
2018-09-15T09:27:00.475Z,28.15
2018-09-15T09:29:29.290Z,28.20
2018-09-15T09:31:58.054Z,28.28
2018-09-15T09:34:26.959Z,28.39
2018-09-15T09:36:55.787Z,28.41
2018-09-15T09:39:24.709Z,28.55
2018-09-15T09:41:53.621Z,28.61
2018-09-15T09:44:22.484Z,28.67
2018-09-15T09:46:51.307Z,28.73
2018-09-15T09:49:20.384Z,28.80
2018-09-15T09:51:49.251Z,28.78
2018-09-15T09:54:17.993Z,28.91
2018-09-15T09:56:47.344Z,29.01
2018-09-15T09:59:16.255Z,29.05
2018-09-15T10:01:50.628Z,29.10
2018-09-15T10:04:19.479Z,29.18
2018-09-15T10:06:48.479Z,29.15
2018-09-15T10:09:17.288Z,29.19
2018-09-15T10:11:46.320Z,29.17
2018-09-15T10:14:15.135Z,29.22
2018-09-15T10:16:44.387Z,29.30
2018-09-15T10:19:13.308Z,29.33
2018-09-15T10:21:42.562Z,29.40
2018-09-15T10:24:11.677Z,29.44
2018-09-15T10:26:40.461Z,29.53
2018-09-15T10:29:10.423Z,29.54
2018-09-15T10:31:39.637Z,29.59
2018-09-15T10:34:08.711Z,29.63
2018-09-15T10:36:37.600Z,29.52
2018-09-15T10:39:08.729Z,29.64
2018-09-15T10:41:37.728Z,29.57
2018-09-15T10:44:06.610Z,29.54
2018-09-15T10:46:35.558Z,29.55
2018-09-15T10:49:04.456Z,29.62
2018-09-15T10:51:33.212Z,29.70
2018-09-15T10:54:02.412Z,29.79
2018-09-15T10:56:31.301Z,29.77
2018-09-15T10:59:00.117Z,29.81
2018-09-15T11:01:29.781Z,29.87
2018-09-15T11:03:58.670Z,29.98
2018-09-15T11:06:27.980Z,29.93
2018-09-15T11:08:57.064Z,29.86
2018-09-15T11:11:25.853Z,29.92
2018-09-15T11:13:54.745Z,30.06
2018-09-15T11:16:23.611Z,30.15
2018-09-15T11:18:52.450Z,30.10
2018-09-15T11:21:21.260Z,30.11
2018-09-15T11:23:50.485Z,30.20
2018-09-15T11:28:58.228Z,30.41
2018-09-15T11:31:27.032Z,30.39
2018-09-15T11:33:55.884Z,30.40
2018-09-15T11:36:25.157Z,30.43
2018-09-15T11:38:54.248Z,30.49
2018-09-15T11:41:23.530Z,30.62
2018-09-15T11:43:52.490Z,30.62
2018-09-15T11:46:21.339Z,30.49
2018-09-15T11:48:50.310Z,30.49
2018-09-15T11:51:19.317Z,30.58
2018-09-15T11:53:49.149Z,30.61
2018-09-15T11:56:19.776Z,30.74
2018-09-15T11:58:48.613Z,30.84
2018-09-15T12:01:20.038Z,30.91
2018-09-15T12:03:49.497Z,30.91
2018-09-15T12:06:18.395Z,30.96
2018-09-15T12:08:47.264Z,31.10
2018-09-15T12:11:16.557Z,31.15
2018-09-15T12:13:45.353Z,31.26
2018-09-15T12:16:14.144Z,31.31
2018-09-15T12:18:43.431Z,31.40
2018-09-15T12:21:13.330Z,31.26
2018-09-15T12:23:42.248Z,31.29
2018-09-15T12:26:11.325Z,31.14
2018-09-15T12:28:40.121Z,31.25
2018-09-15T12:31:09.091Z,31.42
2018-09-15T12:33:38.447Z,31.51
2018-09-15T12:36:07.337Z,31.56
2018-09-15T12:38:36.225Z,31.62
2018-09-15T12:41:05.485Z,31.61
2018-09-15T12:43:34.273Z,31.72
2018-09-15T12:46:03.045Z,31.57
2018-09-15T12:48:32.366Z,31.62
2018-09-15T12:51:01.049Z,31.63
2018-09-15T12:53:29.885Z,31.52
2018-09-15T12:55:59.009Z,31.37
2018-09-15T12:58:27.776Z,31.32
2018-09-15T13:00:56.626Z,31.23
2018-09-15T13:03:25.508Z,31.21
2018-09-15T13:05:54.337Z,31.14
2018-09-15T13:08:23.109Z,31.14
2018-09-15T13:10:51.994Z,31.21
2018-09-15T13:13:20.885Z,31.22
2018-09-15T13:15:49.804Z,31.27
2018-09-15T13:18:18.639Z,31.27
2018-09-15T13:20:47.556Z,31.25
2018-09-15T13:23:16.354Z,31.24
2018-09-15T13:25:45.659Z,31.13
2018-09-15T13:28:14.590Z,31.13
2018-09-15T13:30:43.369Z,31.12
2018-09-15T13:33:12.535Z,31.10
2018-09-15T13:35:41.410Z,31.07
2018-09-15T13:38:10.176Z,31.10
2018-09-15T13:40:39.204Z,31.07
2018-09-15T13:43:07.910Z,31.07
2018-09-15T13:45:37.837Z,31.00
2018-09-15T13:48:07.907Z,30.97
2018-09-15T13:50:36.674Z,30.96
2018-09-15T13:53:05.449Z,30.98
2018-09-15T13:55:34.785Z,30.98
2018-09-15T13:58:04.406Z,30.95
2018-09-15T14:00:34.412Z,30.91
2018-09-15T14:03:03.237Z,30.90
2018-09-15T14:05:32.091Z,30.95
2018-09-15T14:08:00.965Z,30.93
2018-09-15T14:10:29.868Z,30.91
2018-09-15T14:12:58.721Z,30.91
2018-09-15T14:15:27.569Z,30.89
2018-09-15T14:17:56.806Z,30.90
2018-09-15T14:20:25.646Z,30.90
2018-09-15T14:22:54.457Z,30.89
2018-09-15T14:25:23.443Z,30.92
2018-09-15T14:27:52.168Z,30.95
2018-09-15T14:30:21.035Z,30.90
2018-09-15T14:32:49.916Z,30.87
2018-09-15T14:35:18.914Z,30.82
2018-09-15T14:37:47.797Z,30.84
2018-09-15T14:40:17.178Z,30.85
2018-09-15T14:42:46.059Z,30.84
2018-09-15T14:45:14.856Z,30.79
2018-09-15T14:47:43.695Z,30.80
2018-09-15T14:50:12.496Z,30.79
2018-09-15T14:52:41.349Z,30.76
2018-09-15T14:55:10.327Z,30.71
2018-09-15T14:57:39.124Z,30.67
2018-09-15T15:00:08.856Z,30.64
2018-09-15T15:02:38.213Z,30.60
2018-09-15T15:05:07.190Z,30.57
2018-09-15T15:07:36.090Z,30.53
2018-09-15T15:10:05.489Z,30.55
2018-09-15T15:12:34.349Z,30.48
2018-09-15T15:15:03.140Z,30.44
2018-09-15T15:17:31.921Z,30.40
2018-09-15T15:20:01.112Z,30.33
2018-09-15T15:22:30.040Z,30.24
2018-09-15T15:24:58.848Z,30.16
2018-09-15T15:27:27.776Z,30.10
2018-09-15T15:29:56.585Z,30.07
2018-09-15T15:32:25.703Z,30.00
2018-09-15T15:34:54.617Z,29.87
2018-09-15T15:37:23.403Z,29.82
2018-09-15T15:39:52.285Z,29.79
2018-09-15T15:42:21.283Z,29.75
2018-09-15T15:44:50.198Z,29.73
2018-09-15T15:47:19.421Z,29.72
2018-09-15T15:49:48.795Z,29.69
2018-09-15T15:52:17.610Z,29.63
2018-09-15T15:54:46.931Z,29.58
2018-09-15T15:57:15.648Z,29.54
2018-09-15T15:59:44.525Z,29.47
2018-09-15T16:02:13.746Z,29.36
2018-09-15T16:04:42.510Z,29.29
2018-09-15T16:07:11.408Z,29.18
2018-09-15T16:09:40.710Z,29.06
2018-09-15T16:12:09.497Z,28.96
2018-09-15T16:14:38.211Z,28.87
2018-09-15T16:17:08.301Z,28.72
2018-09-15T16:19:37.214Z,28.64
2018-09-15T16:22:06.148Z,28.55
2018-09-15T16:24:35.427Z,28.41
2018-09-15T16:27:04.317Z,28.30
2018-09-15T16:29:33.203Z,28.20
2018-09-15T16:32:02.488Z,28.06
2018-09-15T16:34:31.281Z,28.03
2018-09-15T16:37:00.105Z,27.99
2018-09-15T16:39:28.956Z,27.93
2018-09-15T16:41:57.739Z,27.84
2018-09-15T16:44:26.596Z,27.86
2018-09-15T16:46:55.517Z,27.76
2018-09-15T16:49:24.417Z,27.68
2018-09-15T16:51:53.289Z,27.64
2018-09-15T16:54:22.516Z,27.59
2018-09-15T16:56:51.457Z,27.59
2018-09-15T16:59:20.362Z,27.55
2018-09-15T17:01:49.772Z,27.42
2018-09-15T17:04:18.660Z,27.35
2018-09-15T17:06:47.497Z,27.32
2018-09-15T17:09:16.637Z,27.24
2018-09-15T17:11:45.626Z,27.15
2018-09-15T17:14:14.570Z,27.02
2018-09-15T17:16:43.676Z,26.89
2018-09-15T17:19:12.433Z,26.77
2018-09-15T17:21:41.323Z,26.64
2018-09-15T17:24:10.237Z,26.53
2018-09-15T17:26:39.007Z,26.40
2018-09-15T17:29:07.884Z,26.36
2018-09-15T17:31:37.016Z,26.27
2018-09-15T17:34:05.858Z,26.21
2018-09-15T17:36:34.796Z,26.12
2018-09-15T17:39:05.322Z,26.16
2018-09-15T17:41:34.279Z,25.98
2018-09-15T17:44:03.114Z,25.90
2018-09-15T17:46:32.203Z,25.74
2018-09-15T17:49:01.100Z,25.62
2018-09-15T17:51:30.049Z,25.62
2018-09-15T17:53:59.005Z,25.49
2018-09-15T17:56:27.920Z,25.46
2018-09-15T17:58:56.890Z,25.33
2018-09-15T18:01:25.748Z,25.25
2018-09-15T18:03:54.525Z,25.19
2018-09-15T18:06:23.361Z,25.15
2018-09-15T18:08:53.425Z,25.09
2018-09-15T18:11:22.721Z,25.01
2018-09-15T18:13:51.475Z,24.94
2018-09-15T18:16:20.723Z,24.87
2018-09-15T18:18:49.616Z,24.81
2018-09-15T18:21:18.503Z,24.75
2018-09-15T18:23:47.568Z,24.67
2018-09-15T18:26:16.513Z,24.66
2018-09-15T18:28:45.320Z,24.58
2018-09-15T18:31:14.425Z,24.54
2018-09-15T18:33:43.200Z,24.49
2018-09-15T18:36:12.124Z,24.57
2018-09-15T18:38:41.487Z,24.53
2018-09-15T18:41:10.313Z,24.53
2018-09-15T18:43:41.364Z,24.52
2018-09-15T18:46:10.170Z,24.52
2018-09-15T18:48:39.001Z,24.50
2018-09-15T18:51:08.192Z,24.40
2018-09-15T18:53:37.457Z,24.43
2018-09-15T18:56:06.865Z,24.61
2018-09-15T18:58:36.072Z,24.67
2018-09-15T19:01:04.897Z,24.72
2018-09-15T19:03:33.748Z,24.72
2018-09-15T19:06:02.910Z,24.63
2018-09-15T19:08:31.556Z,24.46
2018-09-15T19:11:00.423Z,24.34
2018-09-15T19:13:29.215Z,24.23
2018-09-15T19:15:58.051Z,24.26
2018-09-15T19:18:26.873Z,24.34
2018-09-15T19:20:56.100Z,24.37
2018-09-15T19:23:25.078Z,24.29
2018-09-15T19:25:53.965Z,24.27
2018-09-15T19:28:22.848Z,24.27
2018-09-15T19:30:51.588Z,24.32
2018-09-15T19:33:20.396Z,24.35
2018-09-15T19:35:49.315Z,24.39
2018-09-15T19:38:18.123Z,24.32
2018-09-15T19:40:46.985Z,24.34
2018-09-15T19:43:16.305Z,24.34
2018-09-15T19:45:45.460Z,24.31
2018-09-15T19:48:14.409Z,24.33
2018-09-15T19:50:43.365Z,24.26
2018-09-15T19:53:12.041Z,24.18
2018-09-15T19:55:41.181Z,24.13
2018-09-15T19:58:10.116Z,24.02
2018-09-15T20:00:38.928Z,23.97
2018-09-15T20:03:07.879Z,23.94
2018-09-15T20:05:36.669Z,23.97
2018-09-15T20:08:05.542Z,23.93
2018-09-15T20:10:34.328Z,23.88
2018-09-15T20:13:03.664Z,23.82
2018-09-15T20:15:31.148Z,23.87
2018-09-15T20:17:59.220Z,23.79
2018-09-15T20:20:26.943Z,23.74
2018-09-15T20:22:56.481Z,23.75
2018-09-15T20:25:25.399Z,23.71
2018-09-15T20:27:54.348Z,23.73
2018-09-15T20:30:23.228Z,23.74
2018-09-15T20:32:51.966Z,23.75
2018-09-15T20:35:21.085Z,23.78
2018-09-15T20:37:49.939Z,23.86
2018-09-15T20:40:18.779Z,23.92
2018-09-15T20:42:47.668Z,23.99
2018-09-15T20:45:16.524Z,23.99
2018-09-15T20:47:45.435Z,24.04
2018-09-15T20:50:14.615Z,24.06
2018-09-15T20:52:43.476Z,24.08
2018-09-15T20:55:12.379Z,24.09
2018-09-15T20:57:41.702Z,24.09
2018-09-15T21:00:11.189Z,24.16
2018-09-15T21:02:40.516Z,24.16
2018-09-15T21:05:09.403Z,24.12
2018-09-15T21:07:38.301Z,24.12
2018-09-15T21:10:07.598Z,24.11
2018-09-15T21:12:36.932Z,24.16
2018-09-15T21:15:06.008Z,24.15
2018-09-15T21:17:34.880Z,24.18
2018-09-15T21:20:03.928Z,24.15
2018-09-15T21:22:32.815Z,24.08
2018-09-15T21:25:01.813Z,24.10
2018-09-15T21:27:31.020Z,24.08
2018-09-15T21:29:59.916Z,24.21
2018-09-15T21:32:28.651Z,24.17
2018-09-15T21:34:58.586Z,24.13
2018-09-15T21:37:27.452Z,24.05
2018-09-15T21:39:56.280Z,24.10
2018-09-15T21:42:25.592Z,24.17
2018-09-15T21:44:54.416Z,24.13
2018-09-15T21:47:23.257Z,24.12
2018-09-15T21:49:52.464Z,24.15
2018-09-15T21:52:21.288Z,24.15
2018-09-15T21:54:50.149Z,24.17
2018-09-15T21:57:19.207Z,24.10
2018-09-15T21:59:48.132Z,24.12
2018-09-15T22:02:16.925Z,24.09
2018-09-15T22:04:45.768Z,24.12
2018-09-15T22:07:14.547Z,24.15
2018-09-15T22:09:43.341Z,24.15
2018-09-15T22:12:12.113Z,24.19
2018-09-15T22:14:40.877Z,24.08
2018-09-15T22:17:09.729Z,24.14
2018-09-15T22:19:38.563Z,24.15
2018-09-15T22:22:07.453Z,24.07
2018-09-15T22:24:36.252Z,24.13
2018-09-15T22:27:05.065Z,24.11
2018-09-15T22:29:33.807Z,24.14
2018-09-15T22:32:02.645Z,24.11
2018-09-15T22:34:31.875Z,24.14
2018-09-15T22:37:00.642Z,24.05
2018-09-15T22:39:29.589Z,24.07
2018-09-15T22:41:58.861Z,24.03
2018-09-15T22:44:27.748Z,24.03
2018-09-15T22:46:56.649Z,24.01
2018-09-15T22:49:25.886Z,24.02
2018-09-15T22:51:54.790Z,23.98
2018-09-15T22:54:23.639Z,23.94
2018-09-15T22:56:52.488Z,23.92
2018-09-15T22:59:21.341Z,23.93
2018-09-15T23:01:50.231Z,23.95
2018-09-15T23:04:19.497Z,23.97
2018-09-15T23:06:48.304Z,23.92
2018-09-15T23:09:17.191Z,23.95
2018-09-15T23:11:46.345Z,23.93
2018-09-15T23:14:15.217Z,23.93
2018-09-15T23:16:43.992Z,23.88
2018-09-15T23:19:13.218Z,23.86
2018-09-15T23:21:42.028Z,23.81
2018-09-15T23:24:10.928Z,23.79
2018-09-15T23:26:40.058Z,23.76
2018-09-15T23:29:08.964Z,23.72
2018-09-15T23:31:37.772Z,23.70
2018-09-15T23:34:06.819Z,23.64
2018-09-15T23:36:35.684Z,23.57
2018-09-15T23:39:06.368Z,23.57
2018-09-15T23:41:35.459Z,23.50
2018-09-15T23:44:04.384Z,23.53
2018-09-15T23:46:33.107Z,23.48
2018-09-15T23:49:02.336Z,23.43
2018-09-15T23:51:31.219Z,23.47
2018-09-15T23:54:00.085Z,23.44
2018-09-15T23:56:28.977Z,23.47
2018-09-15T23:58:57.870Z,23.46
